createdAt,value
2023-03-17T00:00:07.964Z,42
2023-03-17T00:01:51.351Z,42
2023-03-17T00:03:34.740Z,42
2023-03-17T00:05:18.120Z,42.1
2023-03-17T00:07:01.841Z,42.1
2023-03-17T00:08:45.224Z,42.1
2023-03-17T00:10:28.635Z,42.2
2023-03-17T00:12:12.030Z,42.1
2023-03-17T00:13:55.421Z,42.1
2023-03-17T00:15:38.805Z,42.1
2023-03-17T00:17:22.213Z,42.1
2023-03-17T00:19:05.598Z,42.1
2023-03-17T00:22:32.075Z,42.1
2023-03-17T00:24:15.488Z,42.1
2023-03-17T00:25:58.854Z,42.1
2023-03-17T00:27:42.262Z,42.1
2023-03-17T00:29:25.641Z,42.1
2023-03-17T00:31:09.071Z,42.1
2023-03-17T00:32:52.444Z,42.1
2023-03-17T00:38:01.698Z,42.1
2023-03-17T00:39:45.084Z,42.1
2023-03-17T00:41:28.551Z,42.2
2023-03-17T00:43:11.865Z,42.2
2023-03-17T00:44:55.266Z,42.2
2023-03-17T00:46:38.663Z,42.2
2023-03-17T00:48:22.126Z,42.1
2023-03-17T00:53:31.304Z,42.1
2023-03-17T00:55:14.705Z,42.2
2023-03-17T00:56:58.149Z,42.2
2023-03-17T00:58:41.501Z,42.2
2023-03-17T01:00:24.895Z,42.2
2023-03-17T01:02:08.339Z,42.3
2023-03-17T01:03:51.677Z,42.3
2023-03-17T01:05:35.081Z,42.2
2023-03-17T01:09:01.598Z,42.2
2023-03-17T01:10:44.969Z,42.3
2023-03-17T01:12:28.372Z,42.3
2023-03-17T01:14:11.775Z,42.3
2023-03-17T01:15:55.134Z,42.4
2023-03-17T01:17:38.602Z,42.4
2023-03-17T01:19:21.904Z,42.3
2023-03-17T01:24:31.172Z,42.4
2023-03-17T01:26:14.562Z,42.4
2023-03-17T01:27:57.941Z,42.4
2023-03-17T01:29:41.344Z,42.4
2023-03-17T01:31:24.746Z,42.4
2023-03-17T01:33:08.128Z,42.4
2023-03-17T01:34:51.541Z,42.4
2023-03-17T01:40:00.800Z,42.4
2023-03-17T01:41:44.202Z,42.5
2023-03-17T01:43:27.670Z,42.4
2023-03-17T01:45:10.960Z,42.4
2023-03-17T01:46:54.355Z,42.4
2023-03-17T01:48:37.808Z,42.5
2023-03-17T01:50:21.265Z,42.5
2023-03-17T01:55:30.401Z,42.5
2023-03-17T01:57:13.794Z,42.5
2023-03-17T01:58:57.180Z,42.5
2023-03-17T02:00:40.573Z,42.5
2023-03-17T02:02:23.982Z,42.4
2023-03-17T02:04:07.387Z,42.5
2023-03-17T02:05:50.767Z,42.5
2023-03-17T02:07:34.155Z,42.5
2023-03-17T02:11:00.638Z,42.5
2023-03-17T02:12:44.052Z,42.5
2023-03-17T02:14:27.459Z,42.5
2023-03-17T02:16:10.824Z,42.5
2023-03-17T02:17:54.231Z,42.5
2023-03-17T02:19:37.624Z,42.5
2023-03-17T02:21:21.040Z,42.5
2023-03-17T02:23:04.418Z,42.5
2023-03-17T02:26:30.882Z,42.5
2023-03-17T02:28:14.326Z,42.5
2023-03-17T02:29:57.679Z,42.5
2023-03-17T02:31:41.123Z,42.5
2023-03-17T02:33:24.498Z,42.5
2023-03-17T02:35:08.195Z,42.5
2023-03-17T02:36:51.307Z,42.5
2023-03-17T02:38:34.665Z,42.5
2023-03-17T02:42:01.175Z,42.5
2023-03-17T02:43:44.546Z,42.5
2023-03-17T02:45:27.972Z,42.5
2023-03-17T02:47:11.330Z,42.5
2023-03-17T02:48:54.733Z,42.5
2023-03-17T02:50:38.123Z,42.5
2023-03-17T02:52:21.551Z,42.5
2023-03-17T02:54:04.934Z,42.5
2023-03-17T02:57:31.540Z,42.4
2023-03-17T02:59:14.785Z,42.4
2023-03-17T03:00:58.260Z,42.4
2023-03-17T03:02:41.557Z,42.4
2023-03-17T03:04:24.986Z,42.5
2023-03-17T03:06:08.358Z,42.4
2023-03-17T03:07:51.762Z,42.4
2023-03-17T03:09:35.159Z,42.4
2023-03-17T03:11:18.861Z,42.5
2023-03-17T03:13:02.314Z,42.4
2023-03-17T03:14:45.655Z,42.4
2023-03-17T03:16:29.105Z,42.4
2023-03-17T03:18:12.460Z,42.4
2023-03-17T03:19:55.841Z,42.4
2023-03-17T03:21:39.254Z,42.4
2023-03-17T03:23:22.638Z,42.4
2023-03-17T03:26:49.153Z,42.4
2023-03-17T03:28:32.509Z,42.5
2023-03-17T03:30:15.892Z,42.4
2023-03-17T03:31:59.328Z,42.3
2023-03-17T03:33:42.680Z,42.4
2023-03-17T03:35:26.078Z,42.4
2023-03-17T03:37:09.525Z,42.4
2023-03-17T03:38:52.932Z,42.4
2023-03-17T03:40:36.569Z,42.4
2023-03-17T03:42:19.982Z,42.5
2023-03-17T03:44:03.398Z,42.4
2023-03-17T03:45:46.773Z,42.4
2023-03-17T03:47:30.158Z,42.4
2023-03-17T03:49:13.547Z,42.4
2023-03-17T03:50:56.946Z,42.4
2023-03-17T03:52:40.342Z,42.4
2023-03-17T03:56:06.846Z,42.4
2023-03-17T03:57:50.217Z,42.4
2023-03-17T03:59:33.619Z,42.4
2023-03-17T04:01:16.994Z,42.4
2023-03-17T04:03:00.406Z,42.4
2023-03-17T04:04:43.813Z,42.4
2023-03-17T04:06:27.198Z,42.5
2023-03-17T04:08:10.618Z,42.4
2023-03-17T04:09:54.286Z,42.5
2023-03-17T04:11:37.690Z,42.4
2023-03-17T04:13:21.104Z,42.4
2023-03-17T04:15:04.469Z,42.4
2023-03-17T04:16:47.883Z,42.4
2023-03-17T04:18:31.354Z,42.4
2023-03-17T04:20:14.666Z,42.4
2023-03-17T04:21:58.080Z,42.4
2023-03-17T04:25:24.553Z,42.5
2023-03-17T04:27:07.940Z,42.5
2023-03-17T04:28:51.337Z,42.5
2023-03-17T04:30:34.881Z,42.5
2023-03-17T04:32:18.113Z,42.5
2023-03-17T04:34:01.525Z,42.5
2023-03-17T04:35:44.921Z,42.4
2023-03-17T04:40:54.150Z,42.5
2023-03-17T04:42:37.565Z,42.5
2023-03-17T04:44:20.930Z,42.5
2023-03-17T04:46:04.377Z,42.4
2023-03-17T04:47:47.736Z,42.5
2023-03-17T04:49:31.123Z,42.5
2023-03-17T04:51:14.549Z,42.5
2023-03-17T04:56:23.767Z,42.5
2023-03-17T04:58:07.159Z,42.4
2023-03-17T04:59:50.560Z,42.5
2023-03-17T05:01:33.955Z,42.6
2023-03-17T05:03:17.374Z,42.5
2023-03-17T05:05:00.750Z,42.5
2023-03-17T05:06:44.156Z,42.5
2023-03-17T05:08:27.534Z,42.4
2023-03-17T05:11:54.097Z,42.5
2023-03-17T05:13:37.465Z,42.5
2023-03-17T05:15:20.801Z,42.5
2023-03-17T05:17:04.268Z,42.5
2023-03-17T05:18:47.613Z,42.5
2023-03-17T05:20:31.007Z,42.5
2023-03-17T05:22:14.392Z,42.5
2023-03-17T05:23:57.783Z,42.5
2023-03-17T05:27:24.354Z,42.5
2023-03-17T05:29:07.742Z,42.5
2023-03-17T05:30:51.088Z,42.5
2023-03-17T05:32:34.450Z,42.5
2023-03-17T05:34:17.835Z,42.5
2023-03-17T05:36:01.232Z,42.5
2023-03-17T05:37:44.638Z,42.6
2023-03-17T05:39:28.103Z,42.6
2023-03-17T05:44:37.345Z,42.5
2023-03-17T05:46:20.728Z,42.5
2023-03-17T05:48:04.076Z,42.5
2023-03-17T05:49:47.459Z,42.5
2023-03-17T05:51:30.935Z,42.5
2023-03-17T05:53:14.310Z,42.5
2023-03-17T05:54:57.646Z,42.5
2023-03-17T05:56:41.062Z,42.5
2023-03-17T06:00:07.511Z,42.5
2023-03-17T06:01:50.915Z,42.5
2023-03-17T06:03:34.314Z,42.5
2023-03-17T06:05:17.728Z,42.4
2023-03-17T06:07:01.109Z,42.5
2023-03-17T06:08:44.517Z,42.5
2023-03-17T06:10:28.029Z,42.5
2023-03-17T06:12:11.298Z,42.5
2023-03-17T06:15:37.908Z,42.5
2023-03-17T06:17:21.147Z,42.5
2023-03-17T06:19:04.550Z,42.5
2023-03-17T06:20:47.953Z,42.5
2023-03-17T06:22:31.343Z,42.5
2023-03-17T06:24:14.798Z,42.5
2023-03-17T06:25:58.134Z,42.6
2023-03-17T06:27:41.663Z,42.6
2023-03-17T06:31:08.054Z,42.5
2023-03-17T06:32:51.656Z,42.5
2023-03-17T06:34:34.955Z,42.5
2023-03-17T06:36:18.218Z,42.5
2023-03-17T06:38:01.582Z,42.5
2023-03-17T06:39:45.000Z,42.6
2023-03-17T06:41:28.382Z,42.4
2023-03-17T06:43:11.775Z,42.6
2023-03-17T06:48:21.020Z,42.5
2023-03-17T06:50:04.421Z,42.4
2023-03-17T06:51:47.817Z,42.4
2023-03-17T06:53:31.199Z,42.5
2023-03-17T06:55:14.609Z,42.6
2023-03-17T06:56:58.060Z,42.7
2023-03-17T06:58:41.381Z,42.7
2023-03-17T07:00:24.791Z,42.6
2023-03-17T07:03:51.313Z,42.7
2023-03-17T07:05:34.707Z,42.7
2023-03-17T07:07:18.065Z,42.7
2023-03-17T07:09:01.452Z,42.8
2023-03-17T07:10:44.852Z,42.8
2023-03-17T07:12:28.302Z,42.8
2023-03-17T07:14:11.637Z,42.8
2023-03-17T07:15:55.022Z,42.8
2023-03-17T07:19:21.587Z,42.7
2023-03-17T07:21:04.893Z,42.7
2023-03-17T07:22:48.338Z,42.7
2023-03-17T07:24:31.701Z,42.6
2023-03-17T07:26:15.089Z,42.5
2023-03-17T07:27:58.498Z,42.6
2023-03-17T07:29:41.884Z,42.6
2023-03-17T07:31:25.290Z,42.6
2023-03-17T07:34:51.747Z,42.6
2023-03-17T07:36:35.161Z,42.6
2023-03-17T07:38:18.548Z,42.6
2023-03-17T07:40:01.929Z,42.7
2023-03-17T07:41:45.402Z,42.8
2023-03-17T07:43:28.728Z,42.8
2023-03-17T07:45:12.135Z,42.8
2023-03-17T07:46:55.622Z,42.9
2023-03-17T07:52:04.838Z,43
2023-03-17T07:53:48.156Z,43
2023-03-17T07:55:31.556Z,43
2023-03-17T07:57:14.953Z,43
2023-03-17T07:58:58.434Z,43
2023-03-17T08:00:41.798Z,43
2023-03-17T08:02:25.232Z,43
2023-03-17T08:04:08.674Z,43.1
2023-03-17T08:07:35.011Z,43.1
2023-03-17T08:09:18.430Z,43.1
2023-03-17T08:11:01.861Z,43.1
2023-03-17T08:12:45.200Z,43.2
2023-03-17T08:14:28.660Z,43.2
2023-03-17T08:16:12.027Z,43.1
2023-03-17T08:17:55.411Z,43.1
2023-03-17T08:19:38.772Z,43.2
2023-03-17T08:24:48.014Z,43.1
2023-03-17T08:26:31.422Z,43.1
2023-03-17T08:28:14.821Z,43.2
2023-03-17T08:29:58.228Z,43.2
2023-03-17T08:31:41.671Z,43.2
2023-03-17T08:33:25.008Z,43
2023-03-17T08:35:17.324Z,42.9
2023-03-17T08:36:51.912Z,42.9
2023-03-17T08:40:18.335Z,42.8
2023-03-17T08:42:01.725Z,42.9
2023-03-17T08:43:45.078Z,42.9
2023-03-17T08:45:28.562Z,42.8
2023-03-17T08:47:11.911Z,42.8
2023-03-17T08:48:55.280Z,42.8
2023-03-17T08:50:38.662Z,42.7
2023-03-17T08:52:22.128Z,42.8
2023-03-17T08:55:48.564Z,42.8
2023-03-17T08:57:46.217Z,42.7
2023-03-17T08:59:15.362Z,42.7
2023-03-17T09:00:58.738Z,42.7
2023-03-17T09:02:42.336Z,42.7
2023-03-17T09:04:25.546Z,42.7
2023-03-17T09:06:08.954Z,42.7
2023-03-17T09:07:52.340Z,42.7
2023-03-17T09:11:18.900Z,42.7
2023-03-17T09:13:02.180Z,42.7
2023-03-17T09:14:45.609Z,42.7
2023-03-17T09:16:29.000Z,42.7
2023-03-17T09:18:12.399Z,42.7
2023-03-17T09:19:55.779Z,42.7
2023-03-17T09:21:39.156Z,42.7
2023-03-17T09:23:22.534Z,42.7
2023-03-17T09:25:06.261Z,42.7
2023-03-17T09:26:49.740Z,42.7
2023-03-17T09:28:33.037Z,42.7
2023-03-17T09:30:16.459Z,42.7
2023-03-17T09:31:59.844Z,42.7
2023-03-17T09:33:43.278Z,42.6
2023-03-17T09:35:26.636Z,42.6
2023-03-17T09:37:10.049Z,42.6
2023-03-17T09:40:36.681Z,42.6
2023-03-17T09:42:22.865Z,42.7
2023-03-17T09:44:09.339Z,42.7
2023-03-17T09:45:46.689Z,42.6
2023-03-17T09:47:30.099Z,42.6
2023-03-17T09:49:13.539Z,42.6
2023-03-17T09:50:57.000Z,42.6
2023-03-17T09:52:40.305Z,42.7
2023-03-17T09:54:23.963Z,42.6
2023-03-17T09:56:07.359Z,42.7
2023-03-17T09:57:50.785Z,42.6
2023-03-17T09:59:34.144Z,42.6
2023-03-17T10:01:17.655Z,42.6
2023-03-17T10:03:00.945Z,42.6
2023-03-17T10:04:44.475Z,42.6
2023-03-17T10:06:27.753Z,42.6
2023-03-17T10:08:11.454Z,42.6
2023-03-17T10:09:55.088Z,42.6
2023-03-17T10:11:38.332Z,42.6
2023-03-17T10:13:21.723Z,42.6
2023-03-17T10:15:05.049Z,42.7
2023-03-17T10:16:48.446Z,42.7
2023-03-17T10:18:31.842Z,42.7
2023-03-17T10:20:15.252Z,42.7
2023-03-17T10:23:41.745Z,42.6
2023-03-17T10:25:25.296Z,42.6
2023-03-17T10:27:08.504Z,42.7
2023-03-17T10:28:51.949Z,42.7
2023-03-17T10:30:35.337Z,42.7
2023-03-17T10:32:27.132Z,42.7
2023-03-17T10:34:02.086Z,42.7
2023-03-17T10:35:45.565Z,42.9
2023-03-17T10:39:12.010Z,42.8
2023-03-17T10:40:55.345Z,43
2023-03-17T10:42:38.738Z,42.9
2023-03-17T10:44:24.589Z,42.8
2023-03-17T10:46:05.541Z,43.1
2023-03-17T10:47:48.927Z,43.4
2023-03-17T10:49:32.346Z,43.6
2023-03-17T10:51:15.934Z,43.7
2023-03-17T10:52:59.639Z,43.7
2023-03-17T10:54:42.996Z,44.1
2023-03-17T10:56:26.368Z,44
2023-03-17T10:58:09.943Z,44.5
2023-03-17T10:59:53.062Z,44.2
2023-03-17T11:01:36.424Z,44
2023-03-17T11:03:20.018Z,43.6
2023-03-17T11:05:03.222Z,44
2023-03-17T11:08:29.792Z,44.1
2023-03-17T11:10:13.179Z,44.2
2023-03-17T11:11:56.701Z,44.6
2023-03-17T11:13:40.074Z,44.9
2023-03-17T11:15:23.432Z,44.9
2023-03-17T11:17:09.454Z,44.8
2023-03-17T11:18:50.190Z,44.6
2023-03-17T11:20:33.617Z,44.2
2023-03-17T11:22:17.325Z,43.9
2023-03-17T11:24:00.702Z,43.8
2023-03-17T11:25:43.966Z,43.7
2023-03-17T11:27:27.495Z,43.7
2023-03-17T11:29:10.834Z,43.8
2023-03-17T11:30:54.325Z,43.8
2023-03-17T11:32:37.620Z,43.8
2023-03-17T11:34:21.100Z,43.8
2023-03-17T11:37:47.549Z,44
2023-03-17T11:39:30.817Z,43.7
2023-03-17T11:41:14.359Z,43.4
2023-03-17T11:43:16.071Z,43.5
2023-03-17T11:44:41.192Z,43
2023-03-17T11:46:25.006Z,43
2023-03-17T11:48:07.773Z,43.2
2023-03-17T11:49:51.334Z,43.4
2023-03-17T11:51:35.060Z,43.4
2023-03-17T11:53:18.344Z,43.5
2023-03-17T11:55:01.861Z,43.6
2023-03-17T11:56:45.209Z,43.6
2023-03-17T11:58:28.732Z,43.6
2023-03-17T12:00:11.992Z,43.8
2023-03-17T12:01:55.443Z,44
2023-03-17T12:07:04.679Z,44.2
2023-03-17T12:08:47.997Z,44.5
2023-03-17T12:10:31.371Z,44.7
2023-03-17T12:12:14.860Z,44.5
2023-03-17T12:13:58.174Z,44.6
2023-03-17T12:15:41.648Z,44.7
2023-03-17T12:17:24.960Z,44.5
2023-03-17T12:20:51.363Z,44.5
2023-03-17T12:22:34.914Z,44.5
2023-03-17T12:24:18.244Z,44.6
2023-03-17T12:26:01.737Z,44.6
2023-03-17T12:27:45.108Z,44.6
2023-03-17T12:29:28.418Z,44.4
2023-03-17T12:31:11.815Z,44.3
2023-03-17T12:36:20.980Z,44.4
2023-03-17T12:38:04.343Z,44.2
2023-03-17T12:39:47.822Z,44.3
2023-03-17T12:41:31.286Z,44.2
2023-03-17T12:43:14.672Z,44.1
2023-03-17T12:44:57.949Z,44.2
2023-03-17T12:46:41.351Z,44.2
2023-03-17T12:51:50.577Z,44.3
2023-03-17T12:53:34.035Z,44.3
2023-03-17T12:55:17.577Z,44.3
2023-03-17T12:57:00.773Z,44.4
2023-03-17T12:58:44.162Z,44.4
2023-03-17T13:00:27.628Z,44.4
2023-03-17T13:02:10.975Z,44.4
2023-03-17T13:07:20.285Z,44.4
2023-03-17T13:09:03.611Z,44.4
2023-03-17T13:10:47.086Z,44.4
2023-03-17T13:12:30.414Z,44.4
2023-03-17T13:14:13.808Z,44.4
2023-03-17T13:15:57.189Z,44.4
2023-03-17T13:17:40.627Z,44.4
2023-03-17T13:21:07.051Z,44.4
2023-03-17T13:22:50.511Z,44.4
2023-03-17T13:24:33.874Z,44.4
2023-03-17T13:26:17.235Z,44.4
2023-03-17T13:28:00.658Z,44.4
2023-03-17T13:29:44.281Z,44.5
2023-03-17T13:31:27.434Z,44.5
2023-03-17T13:33:11.442Z,44.6
2023-03-17T13:36:37.362Z,44.7
2023-03-17T13:38:20.704Z,44.7
2023-03-17T13:40:04.101Z,44.6
2023-03-17T13:41:47.510Z,44.6
2023-03-17T13:43:30.905Z,44.6
2023-03-17T13:45:14.284Z,44.7
2023-03-17T13:46:57.776Z,44.6
2023-03-17T13:52:06.986Z,44.7
2023-03-17T13:53:50.297Z,44.7
2023-03-17T13:55:33.929Z,44.7
2023-03-17T13:57:17.106Z,44.7
2023-03-17T13:59:00.562Z,44.7
2023-03-17T14:00:43.915Z,44.7
2023-03-17T14:02:27.296Z,44.7
2023-03-17T14:04:10.713Z,44.7
2023-03-17T14:07:37.159Z,44.6
2023-03-17T14:09:20.570Z,44.7
2023-03-17T14:11:03.951Z,44.7
2023-03-17T14:12:47.373Z,44.7
2023-03-17T14:14:30.797Z,44.6
2023-03-17T14:16:14.170Z,44.6
2023-03-17T14:17:57.593Z,44.6
2023-03-17T14:19:41.155Z,44.6
2023-03-17T14:21:24.688Z,44.6
2023-03-17T14:23:08.165Z,44.6
2023-03-17T14:24:51.475Z,44.6
2023-03-17T14:26:34.908Z,44.6
2023-03-17T14:28:18.226Z,44.6
2023-03-17T14:30:01.622Z,44.7
2023-03-17T14:31:45.112Z,44.7
2023-03-17T14:33:28.504Z,44.7
2023-03-17T14:35:12.156Z,44.8
2023-03-17T14:36:55.578Z,44.8
2023-03-17T14:38:38.990Z,44.9
2023-03-17T14:40:22.410Z,44.9
2023-03-17T14:42:05.736Z,44.8
2023-03-17T14:43:49.217Z,44.9
2023-03-17T14:45:32.638Z,44.9
2023-03-17T14:47:15.981Z,44.9
2023-03-17T14:48:59.611Z,44.9
2023-03-17T14:50:43.112Z,44.9
2023-03-17T14:52:26.397Z,44.9
2023-03-17T14:54:09.935Z,45
2023-03-17T14:55:53.188Z,45
2023-03-17T14:57:36.793Z,45
2023-03-17T14:59:20.101Z,45
2023-03-17T15:04:29.359Z,44.9
2023-03-17T15:06:12.689Z,45
2023-03-17T15:07:56.078Z,45
2023-03-17T15:09:39.415Z,45.1
2023-03-17T15:11:22.868Z,45
2023-03-17T15:13:06.287Z,45
2023-03-17T15:14:49.624Z,45.2
2023-03-17T15:18:16.135Z,45.5
2023-03-17T15:19:59.480Z,45.3
2023-03-17T15:21:42.871Z,45.4
2023-03-17T15:23:26.313Z,45.7
2023-03-17T15:25:09.672Z,45.9
2023-03-17T15:26:53.086Z,46.1
2023-03-17T15:28:36.542Z,45.7
2023-03-17T15:30:19.994Z,46
2023-03-17T15:32:03.556Z,45.9
2023-03-17T15:33:47.145Z,45.5
2023-03-17T15:35:30.439Z,45.4
2023-03-17T15:37:13.795Z,45.6
2023-03-17T15:38:57.144Z,45.3
2023-03-17T15:40:40.816Z,45.5
2023-03-17T15:42:23.956Z,45.7
2023-03-17T15:45:51.249Z,45.8
2023-03-17T15:49:17.253Z,46.1
2023-03-17T16:01:20.352Z,45.5
2023-03-17T16:03:03.502Z,45.4
2023-03-17T16:04:46.833Z,45.4
2023-03-17T16:06:30.294Z,45.4
2023-03-17T16:08:13.666Z,45.4
2023-03-17T16:09:57.063Z,45.4
2023-03-17T16:11:40.412Z,45.5
2023-03-17T16:15:07.040Z,45.5
2023-03-17T16:16:50.400Z,45.5
2023-03-17T16:18:33.836Z,45.5
2023-03-17T16:20:17.110Z,45.5
2023-03-17T16:22:00.563Z,45.5
2023-03-17T16:23:43.978Z,45.5
2023-03-17T16:25:27.338Z,45.5
2023-03-17T16:28:53.808Z,45.5
2023-03-17T16:30:37.232Z,45.5
2023-03-17T16:32:20.522Z,45.5
2023-03-17T16:34:03.951Z,45.5
2023-03-17T16:35:47.448Z,45.5
2023-03-17T16:37:30.725Z,45.5
2023-03-17T16:39:14.099Z,45.5
2023-03-17T16:44:23.343Z,45.6
2023-03-17T16:46:06.808Z,45.8
2023-03-17T16:47:50.197Z,46
2023-03-17T16:49:33.618Z,45.7
2023-03-17T16:51:17.018Z,45.5
2023-03-17T16:53:00.331Z,45.6
2023-03-17T16:54:43.790Z,45.5
2023-03-17T16:59:53.123Z,45.6
2023-03-17T17:01:36.399Z,45.7
2023-03-17T17:03:19.771Z,45.7
2023-03-17T17:05:03.160Z,45.7
2023-03-17T17:06:46.612Z,45.7
2023-03-17T17:08:30.043Z,45.7
2023-03-17T17:10:13.378Z,45.8
2023-03-17T17:13:39.960Z,45.8
2023-03-17T17:15:23.267Z,45.8
2023-03-17T17:17:06.607Z,45.8
2023-03-17T17:18:50.017Z,45.9
2023-03-17T17:20:33.470Z,45.9
2023-03-17T17:22:16.958Z,46
2023-03-17T17:24:00.363Z,46
2023-03-17T17:27:26.723Z,46
2023-03-17T17:29:10.110Z,46.1
2023-03-17T17:30:53.482Z,46.3
2023-03-17T17:32:36.877Z,46.1
2023-03-17T17:34:20.284Z,46.1
2023-03-17T17:36:03.690Z,46.1
2023-03-17T17:37:47.063Z,46.1
2023-03-17T17:42:56.337Z,46.1
2023-03-17T17:44:39.716Z,46.1
2023-03-17T17:46:23.104Z,46.2
2023-03-17T17:48:06.483Z,46.3
2023-03-17T17:49:49.919Z,46.1
2023-03-17T17:51:33.290Z,46
2023-03-17T17:53:16.700Z,46
2023-03-17T17:56:43.168Z,46
2023-03-17T17:58:26.576Z,46
2023-03-17T18:00:09.958Z,46
2023-03-17T18:01:53.361Z,46
2023-03-17T18:03:36.764Z,46
2023-03-17T18:05:20.164Z,46
2023-03-17T18:07:03.541Z,46.2
2023-03-17T18:10:30.027Z,46.2
2023-03-17T18:12:13.414Z,46
2023-03-17T18:13:56.813Z,46.1
2023-03-17T18:15:40.202Z,46
2023-03-17T18:17:23.627Z,46
2023-03-17T18:19:07.005Z,45.9
2023-03-17T18:20:50.388Z,45.9
2023-03-17T18:22:33.824Z,46
2023-03-17T18:24:17.488Z,46
2023-03-17T18:26:00.918Z,45.9
2023-03-17T18:27:44.277Z,46.2
2023-03-17T18:29:27.683Z,46.1
2023-03-17T18:31:11.212Z,46
2023-03-17T18:32:54.530Z,46.1
2023-03-17T18:34:37.878Z,46.4
2023-03-17T18:38:04.435Z,46.3
2023-03-17T18:39:47.738Z,46.3
2023-03-17T18:41:31.270Z,46.5
2023-03-17T18:43:14.537Z,46.4
2023-03-17T18:44:57.944Z,46
2023-03-17T18:46:41.365Z,46
2023-03-17T18:48:24.754Z,46
2023-03-17T18:51:51.202Z,46
2023-03-17T18:53:34.657Z,46
2023-03-17T18:55:18.003Z,45.9
2023-03-17T18:57:01.398Z,45.8
2023-03-17T18:58:44.889Z,45.9
2023-03-17T19:00:28.385Z,45.9
2023-03-17T19:02:11.580Z,45.8
2023-03-17T19:03:54.985Z,45.8
2023-03-17T19:05:38.862Z,45.8
2023-03-17T19:07:22.123Z,45.8
2023-03-17T19:09:05.515Z,45.9
2023-03-17T19:10:48.936Z,45.8
2023-03-17T19:12:32.276Z,45.9
2023-03-17T19:14:15.702Z,46.3
2023-03-17T19:15:59.069Z,46
2023-03-17T19:21:08.376Z,46.3
2023-03-17T19:22:51.778Z,46.5
2023-03-17T19:24:35.156Z,46.5
2023-03-17T19:26:18.514Z,46.7
2023-03-17T19:28:01.924Z,47.1
2023-03-17T19:29:45.293Z,47
2023-03-17T19:31:28.693Z,46.8
2023-03-17T19:34:55.177Z,46.9
2023-03-17T19:36:38.578Z,47.3
2023-03-17T19:38:21.975Z,47.1
2023-03-17T19:40:05.345Z,46.9
2023-03-17T19:41:48.746Z,47.2
2023-03-17T19:43:32.165Z,47.2
2023-03-17T19:45:15.535Z,47.1
2023-03-17T19:50:24.889Z,47
2023-03-17T19:52:08.228Z,46.9
2023-03-17T19:53:51.582Z,47
2023-03-17T19:55:35.106Z,47
2023-03-17T19:57:18.387Z,47
2023-03-17T19:59:01.788Z,47
2023-03-17T20:00:45.221Z,47
2023-03-17T20:04:11.657Z,47
2023-03-17T20:05:55.049Z,47.1
2023-03-17T20:07:38.439Z,47.4
2023-03-17T20:09:21.852Z,47.3
2023-03-17T20:11:05.318Z,47.2
2023-03-17T20:14:32.066Z,47.1
2023-03-17T20:16:15.732Z,47.2
2023-03-17T20:17:59.154Z,47.2
2023-03-17T20:19:42.553Z,47.2
2023-03-17T20:21:25.980Z,47.3
2023-03-17T20:23:09.303Z,47.3
2023-03-17T20:24:52.711Z,47.5
2023-03-17T20:26:36.111Z,47.5
2023-03-17T20:28:19.504Z,47.6
2023-03-17T20:30:03.214Z,47.8
2023-03-17T20:31:46.698Z,47.6
2023-03-17T20:33:30.028Z,47.7
2023-03-17T20:35:13.402Z,47.8
2023-03-17T20:36:56.816Z,47.7
2023-03-17T20:38:40.218Z,47.4
2023-03-17T20:40:23.701Z,47.4
2023-03-17T20:43:50.077Z,47.4
2023-03-17T20:45:33.484Z,47.4
2023-03-17T20:47:16.943Z,47.4
2023-03-17T20:49:00.267Z,47.4
2023-03-17T20:50:43.854Z,47.3
2023-03-17T20:52:27.077Z,47.3
2023-03-17T20:54:10.433Z,47.2
2023-03-17T20:57:36.927Z,47.1
2023-03-17T20:59:20.309Z,47.1
2023-03-17T21:01:03.701Z,47.1
2023-03-17T21:02:47.101Z,47.3
2023-03-17T21:04:30.502Z,47.2
2023-03-17T21:06:13.908Z,47.1
2023-03-17T21:07:57.358Z,47.2
2023-03-17T21:09:41.194Z,47.2
2023-03-17T21:11:24.478Z,47.2
2023-03-17T21:13:07.892Z,47.2
2023-03-17T21:14:51.247Z,47.3
2023-03-17T21:16:34.604Z,47.1
2023-03-17T21:18:17.996Z,47.1
2023-03-17T21:20:01.388Z,47.2
2023-03-17T21:23:27.843Z,47.4
2023-03-17T21:25:11.371Z,47.4
2023-03-17T21:26:54.655Z,47.2
2023-03-17T21:28:38.059Z,47.2
2023-03-17T21:30:21.598Z,47.2
2023-03-17T21:32:04.836Z,47.3
2023-03-17T21:33:48.298Z,47.4
2023-03-17T21:38:57.478Z,47.2
2023-03-17T21:40:40.996Z,47.3
2023-03-17T21:42:24.358Z,47.3
2023-03-17T21:44:07.673Z,47.3
2023-03-17T21:45:51.105Z,47.4
2023-03-17T21:47:34.527Z,47.3
2023-03-17T21:49:17.867Z,47.4
2023-03-17T21:52:44.332Z,47.6
2023-03-17T21:54:27.794Z,48
2023-03-17T21:56:11.142Z,49.2
2023-03-17T21:57:54.539Z,48.4
2023-03-17T21:59:37.916Z,47.9
2023-03-17T22:01:21.312Z,47.7
2023-03-17T22:03:04.704Z,47.5
2023-03-17T22:06:31.198Z,47.9
2023-03-17T22:08:14.579Z,47.6
2023-03-17T22:09:57.982Z,48
2023-03-17T22:11:41.372Z,47.7
2023-03-17T22:13:24.767Z,48.1
2023-03-17T22:15:08.193Z,48.4
2023-03-17T22:16:51.562Z,47.8
2023-03-17T22:22:00.820Z,47.8
2023-03-17T22:23:44.258Z,47.8
2023-03-17T22:25:27.624Z,47.8
2023-03-17T22:27:11.051Z,47.8
2023-03-17T22:28:54.403Z,47.8
2023-03-17T22:30:37.965Z,47.8
2023-03-17T22:32:21.186Z,47.8
2023-03-17T22:35:47.730Z,47.8
2023-03-17T22:37:31.046Z,47.8
2023-03-17T22:39:14.451Z,47.8
2023-03-17T22:40:58.006Z,47.8
2023-03-17T22:42:41.256Z,47.8
2023-03-17T22:44:24.669Z,47.8
2023-03-17T22:46:08.156Z,47.8
2023-03-17T22:47:51.458Z,47.8
2023-03-17T22:49:35.203Z,47.8
2023-03-17T22:51:18.538Z,47.8
2023-03-17T22:53:01.951Z,47.7
2023-03-17T22:54:45.331Z,47.8
2023-03-17T22:56:28.748Z,47.8
2023-03-17T22:58:12.172Z,47.9
2023-03-17T22:59:55.561Z,47.8
2023-03-17T23:01:38.923Z,47.8
2023-03-17T23:03:22.710Z,47.8
2023-03-17T23:05:06.041Z,47.8
2023-03-17T23:06:49.480Z,47.8
2023-03-17T23:08:32.827Z,47.8
2023-03-17T23:10:16.220Z,47.8
2023-03-17T23:11:59.635Z,47.9
2023-03-17T23:13:43.059Z,48
2023-03-17T23:15:26.439Z,48
2023-03-17T23:17:10.134Z,48
2023-03-17T23:18:53.518Z,48
2023-03-17T23:20:37.015Z,48
2023-03-17T23:22:20.337Z,48
2023-03-17T23:24:03.767Z,48
2023-03-17T23:25:47.136Z,48.1
2023-03-17T23:27:30.513Z,48.1
2023-03-17T23:29:13.894Z,48.1
2023-03-17T23:30:57.605Z,48.1
2023-03-17T23:32:41.004Z,48.1
2023-03-17T23:34:24.398Z,48.1
2023-03-17T23:36:07.812Z,48.1
2023-03-17T23:37:51.247Z,48
2023-03-17T23:39:34.581Z,48
2023-03-17T23:41:17.964Z,48
2023-03-17T23:43:01.404Z,48
2023-03-17T23:44:45.132Z,48
2023-03-17T23:46:28.489Z,47.9
2023-03-17T23:48:11.885Z,48
2023-03-17T23:49:55.263Z,47.9
2023-03-17T23:51:38.701Z,47.9
2023-03-17T23:53:22.170Z,47.9
2023-03-17T23:55:05.452Z,47.9
2023-03-17T23:56:48.859Z,47.9
